createdAt,value
2019-01-21T00:00:24.882Z,1019.40
2019-01-21T00:01:24.909Z,1019.40
2019-01-21T00:02:24.855Z,1019.39
2019-01-21T00:03:24.847Z,1019.40
2019-01-21T00:04:24.854Z,1019.38
2019-01-21T00:05:24.832Z,1019.40
2019-01-21T00:06:24.819Z,1019.37
2019-01-21T00:07:24.803Z,1019.37
2019-01-21T00:08:24.792Z,1019.38
2019-01-21T00:09:24.790Z,1019.36
2019-01-21T00:10:24.782Z,1019.35
2019-01-21T00:11:24.795Z,1019.37
2019-01-21T00:12:24.807Z,1019.34
2019-01-21T00:13:24.745Z,1019.35
2019-01-21T00:14:24.729Z,1019.34
2019-01-21T00:15:24.721Z,1019.35
2019-01-21T00:16:24.711Z,1019.33
2019-01-21T00:17:24.714Z,1019.37
2019-01-21T00:18:24.685Z,1019.34
2019-01-21T00:19:24.676Z,1019.37
2019-01-21T00:20:24.946Z,1019.34
2019-01-21T00:21:24.748Z,1019.33
2019-01-21T00:22:24.643Z,1019.34
2019-01-21T00:23:24.642Z,1019.34
2019-01-21T00:24:25.505Z,1019.32
2019-01-21T00:25:24.616Z,1019.32
2019-01-21T00:26:24.609Z,1019.33
2019-01-21T00:27:24.597Z,1019.32
2019-01-21T00:28:24.583Z,1019.36
2019-01-21T00:29:24.581Z,1019.34
2019-01-21T00:30:24.557Z,1019.31
2019-01-21T00:31:24.736Z,1019.33
2019-01-21T00:32:24.544Z,1019.33
2019-01-21T00:33:24.535Z,1019.31
2019-01-21T00:34:24.522Z,1019.33
2019-01-21T00:35:24.516Z,1019.33
2019-01-21T00:36:24.495Z,1019.29
2019-01-21T00:37:24.483Z,1019.28
2019-01-21T00:38:24.475Z,1019.27
2019-01-21T00:39:24.473Z,1019.33
2019-01-21T00:40:24.458Z,1019.31
2019-01-21T00:41:24.467Z,1019.30
2019-01-21T00:42:24.429Z,1019.26
2019-01-21T00:43:24.421Z,1019.26
2019-01-21T00:44:24.423Z,1019.25
2019-01-21T00:45:24.402Z,1019.29
2019-01-21T00:46:24.393Z,1019.30
2019-01-21T00:47:29.855Z,1019.28
2019-01-21T00:48:25.495Z,1019.26
2019-01-21T00:49:24.359Z,1019.28
2019-01-21T00:50:24.352Z,1019.32
2019-01-21T00:51:24.342Z,1019.33
2019-01-21T00:52:24.391Z,1019.27
2019-01-21T00:53:24.346Z,1019.34
2019-01-21T00:54:24.454Z,1019.31
2019-01-21T00:55:24.291Z,1019.30
2019-01-21T00:56:24.289Z,1019.34
2019-01-21T00:57:24.271Z,1019.33
2019-01-21T00:58:24.270Z,1019.32
2019-01-21T00:59:24.255Z,1019.33
2019-01-21T01:00:24.240Z,1019.33
2019-01-21T01:01:24.228Z,1019.30
2019-01-21T01:02:24.222Z,1019.31
2019-01-21T01:03:24.205Z,1019.31
2019-01-21T01:04:24.199Z,1019.32
2019-01-21T01:05:24.197Z,1019.31
2019-01-21T01:06:24.176Z,1019.32
2019-01-21T01:07:24.169Z,1019.32
2019-01-21T01:08:24.151Z,1019.34
2019-01-21T01:09:24.142Z,1019.36
2019-01-21T01:10:24.134Z,1019.39
2019-01-21T01:11:24.116Z,1019.37
2019-01-21T01:12:24.103Z,1019.37
2019-01-21T01:13:24.094Z,1019.34
2019-01-21T01:14:24.082Z,1019.39
2019-01-21T01:15:24.075Z,1019.39
2019-01-21T01:16:24.070Z,1019.39
2019-01-21T01:17:24.051Z,1019.37
2019-01-21T01:18:24.040Z,1019.41
2019-01-21T01:19:24.040Z,1019.34
2019-01-21T01:20:24.023Z,1019.36
2019-01-21T01:21:24.008Z,1019.32
2019-01-21T01:22:24.005Z,1019.33
2019-01-21T01:23:23.986Z,1019.34
2019-01-21T01:24:23.976Z,1019.35
2019-01-21T01:25:23.965Z,1019.38
2019-01-21T01:26:23.957Z,1019.38
2019-01-21T01:27:23.943Z,1019.37
2019-01-21T01:28:23.946Z,1019.36
2019-01-21T01:29:24.505Z,1019.41
2019-01-21T01:30:23.912Z,1019.42
2019-01-21T01:31:23.900Z,1019.40
2019-01-21T01:32:23.889Z,1019.40
2019-01-21T01:33:23.882Z,1019.40
2019-01-21T01:34:23.879Z,1019.38
2019-01-21T01:35:23.859Z,1019.39
2019-01-21T01:36:23.846Z,1019.36
2019-01-21T01:37:23.836Z,1019.35
2019-01-21T01:38:23.878Z,1019.36
2019-01-21T01:39:23.843Z,1019.36
2019-01-21T01:40:23.861Z,1019.38
2019-01-21T01:41:23.800Z,1019.39
2019-01-21T01:42:23.794Z,1019.37
2019-01-21T01:43:23.780Z,1019.35
2019-01-21T01:44:23.766Z,1019.35
2019-01-21T01:45:23.758Z,1019.37
2019-01-21T01:46:23.744Z,1019.33
2019-01-21T01:47:23.730Z,1019.37
2019-01-21T01:48:23.741Z,1019.37
2019-01-21T01:49:23.731Z,1019.36
2019-01-21T01:50:23.703Z,1019.34
2019-01-21T01:51:23.689Z,1019.34
2019-01-21T01:52:23.702Z,1019.33
2019-01-21T01:53:23.673Z,1019.32
2019-01-21T01:54:23.667Z,1019.34
2019-01-21T01:55:23.649Z,1019.32
2019-01-21T01:56:23.635Z,1019.32
2019-01-21T01:57:23.628Z,1019.28
2019-01-21T01:58:23.618Z,1019.30
2019-01-21T01:59:23.605Z,1019.28
2019-01-21T02:00:23.594Z,1019.32
2019-01-21T02:01:23.581Z,1019.32
2019-01-21T02:02:23.576Z,1019.32
2019-01-21T02:03:23.565Z,1019.36
2019-01-21T02:04:23.556Z,1019.36
2019-01-21T02:05:23.546Z,1019.34
2019-01-21T02:06:23.540Z,1019.36
2019-01-21T02:07:23.526Z,1019.36
2019-01-21T02:08:23.516Z,1019.35
2019-01-21T02:09:23.511Z,1019.33
2019-01-21T02:10:23.496Z,1019.30
2019-01-21T02:11:23.483Z,1019.31
2019-01-21T02:12:23.472Z,1019.35
2019-01-21T02:13:23.467Z,1019.31
2019-01-21T02:14:23.454Z,1019.28
2019-01-21T02:15:23.447Z,1019.34
2019-01-21T02:16:23.433Z,1019.31
2019-01-21T02:17:23.419Z,1019.31
2019-01-21T02:18:23.405Z,1019.32
2019-01-21T02:19:23.396Z,1019.35
2019-01-21T02:20:23.385Z,1019.31
2019-01-21T02:21:23.386Z,1019.33
2019-01-21T02:22:23.367Z,1019.29
2019-01-21T02:23:23.355Z,1019.31
2019-01-21T02:24:23.349Z,1019.30
2019-01-21T02:25:23.335Z,1019.29
2019-01-21T02:26:23.320Z,1019.25
2019-01-21T02:27:23.316Z,1019.29
2019-01-21T02:28:23.305Z,1019.28
2019-01-21T02:29:23.295Z,1019.30
2019-01-21T02:30:23.297Z,1019.35
2019-01-21T02:31:23.266Z,1019.32
2019-01-21T02:32:23.261Z,1019.35
2019-01-21T02:33:23.256Z,1019.35
2019-01-21T02:34:23.244Z,1019.32
2019-01-21T02:35:23.233Z,1019.27
2019-01-21T02:36:23.214Z,1019.25
2019-01-21T02:37:23.206Z,1019.25
2019-01-21T02:38:23.196Z,1019.24
2019-01-21T02:39:23.190Z,1019.22
2019-01-21T02:40:23.180Z,1019.24
2019-01-21T02:41:23.270Z,1019.24
2019-01-21T02:42:23.154Z,1019.20
2019-01-21T02:43:23.142Z,1019.22
2019-01-21T02:44:23.132Z,1019.18
2019-01-21T02:45:23.124Z,1019.25
2019-01-21T02:46:23.115Z,1019.18
2019-01-21T02:47:23.099Z,1019.21
2019-01-21T02:48:23.088Z,1019.22
2019-01-21T02:49:23.073Z,1019.17
2019-01-21T02:50:23.073Z,1019.21
2019-01-21T02:51:23.062Z,1019.20
2019-01-21T02:52:23.051Z,1019.20
2019-01-21T02:53:23.080Z,1019.18
2019-01-21T02:54:23.024Z,1019.20
2019-01-21T02:55:23.015Z,1019.20
2019-01-21T02:56:23.006Z,1019.19
2019-01-21T02:57:22.997Z,1019.14
2019-01-21T02:58:22.994Z,1019.13
2019-01-21T02:59:22.967Z,1019.19
2019-01-21T03:00:22.958Z,1019.14
2019-01-21T03:01:22.957Z,1019.13
2019-01-21T03:02:22.943Z,1019.16
2019-01-21T03:03:22.931Z,1019.12
2019-01-21T03:04:22.935Z,1019.13
2019-01-21T03:05:22.907Z,1019.13
2019-01-21T03:06:22.895Z,1019.09
2019-01-21T03:07:22.884Z,1019.13
2019-01-21T03:08:22.882Z,1019.08
2019-01-21T03:09:22.872Z,1019.05
2019-01-21T03:10:22.873Z,1019.08
2019-01-21T03:11:22.840Z,1019.09
2019-01-21T03:12:22.831Z,1019.12
2019-01-21T03:13:22.819Z,1019.08
2019-01-21T03:14:22.817Z,1019.09
2019-01-21T03:15:22.802Z,1019.09
2019-01-21T03:16:22.790Z,1019.13
2019-01-21T03:17:22.776Z,1019.11
2019-01-21T03:18:22.774Z,1019.11
2019-01-21T03:19:22.755Z,1019.11
2019-01-21T03:20:22.752Z,1019.09
2019-01-21T03:21:22.739Z,1019.09
2019-01-21T03:22:22.726Z,1019.06
2019-01-21T03:23:22.712Z,1019.06
2019-01-21T03:24:22.706Z,1019.05
2019-01-21T03:25:22.701Z,1019.04
2019-01-21T03:26:22.695Z,1019.13
2019-01-21T03:27:22.668Z,1019.08
2019-01-21T03:28:22.660Z,1019.11
2019-01-21T03:29:22.643Z,1019.15
2019-01-21T03:30:22.645Z,1019.14
2019-01-21T03:31:22.627Z,1019.11
2019-01-21T03:32:22.628Z,1019.12
2019-01-21T03:33:22.607Z,1019.13
2019-01-21T03:34:22.596Z,1019.16
2019-01-21T03:35:22.584Z,1019.15
2019-01-21T03:36:22.572Z,1019.14
2019-01-21T03:37:22.575Z,1019.17
2019-01-21T03:38:22.558Z,1019.17
2019-01-21T03:39:22.538Z,1019.16
2019-01-21T03:40:22.539Z,1019.15
2019-01-21T03:41:22.516Z,1019.17
2019-01-21T03:42:22.514Z,1019.21
2019-01-21T03:43:22.496Z,1019.19
2019-01-21T03:44:22.502Z,1019.19
2019-01-21T03:45:22.476Z,1019.16
2019-01-21T03:46:22.465Z,1019.19
2019-01-21T03:47:22.455Z,1019.12
2019-01-21T03:48:22.440Z,1019.13
2019-01-21T03:49:22.430Z,1019.14
2019-01-21T03:50:22.422Z,1019.12
2019-01-21T03:51:22.411Z,1019.13
2019-01-21T03:52:22.407Z,1019.07
2019-01-21T03:53:22.390Z,1019.15
2019-01-21T03:54:22.382Z,1019.19
2019-01-21T03:55:22.370Z,1019.19
2019-01-21T03:56:22.360Z,1019.16
2019-01-21T03:57:22.354Z,1019.19
2019-01-21T03:58:22.340Z,1019.18
2019-01-21T03:59:22.334Z,1019.19
2019-01-21T04:00:22.318Z,1019.19
2019-01-21T04:01:22.309Z,1019.22
2019-01-21T04:02:22.294Z,1019.18
2019-01-21T04:03:22.283Z,1019.18
2019-01-21T04:04:22.273Z,1019.18
2019-01-21T04:05:22.260Z,1019.17
2019-01-21T04:06:22.254Z,1019.17
2019-01-21T04:07:22.245Z,1019.15
2019-01-21T04:08:22.230Z,1019.10
2019-01-21T04:09:22.218Z,1019.14
2019-01-21T04:10:22.214Z,1019.11
2019-01-21T04:11:22.199Z,1019.10
2019-01-21T04:12:22.188Z,1019.07
2019-01-21T04:13:22.187Z,1019.04
2019-01-21T04:14:22.165Z,1019.05
2019-01-21T04:15:22.155Z,1019.04
2019-01-21T04:16:22.150Z,1019.02
2019-01-21T04:17:22.142Z,1019.04
2019-01-21T04:18:24.557Z,1019.02
2019-01-21T04:19:22.120Z,1019.06
2019-01-21T04:20:22.101Z,1019.03
2019-01-21T04:21:22.091Z,1019.05
2019-01-21T04:22:22.083Z,1019.00
2019-01-21T04:23:22.069Z,1019.00
2019-01-21T04:24:22.063Z,1018.98
2019-01-21T04:25:22.069Z,1018.97
2019-01-21T04:26:22.079Z,1018.95
2019-01-21T04:27:22.027Z,1018.93
2019-01-21T04:28:22.024Z,1018.97
2019-01-21T04:29:22.022Z,1018.91
2019-01-21T04:30:22.009Z,1018.91
2019-01-21T04:31:21.991Z,1018.93
2019-01-21T04:32:21.996Z,1018.91
2019-01-21T04:33:21.964Z,1018.95
2019-01-21T04:34:21.956Z,1018.93
2019-01-21T04:35:21.941Z,1018.92
2019-01-21T04:36:21.938Z,1018.95
2019-01-21T04:37:21.920Z,1018.92
2019-01-21T04:38:21.910Z,1018.88
2019-01-21T04:39:21.901Z,1018.85
2019-01-21T04:40:21.888Z,1018.83
2019-01-21T04:41:21.891Z,1018.83
2019-01-21T04:42:21.870Z,1018.83
2019-01-21T04:43:21.856Z,1018.80
2019-01-21T04:44:21.845Z,1018.81
2019-01-21T04:45:21.842Z,1018.82
2019-01-21T04:46:21.824Z,1018.85
2019-01-21T04:47:21.820Z,1018.85
2019-01-21T04:48:21.805Z,1018.82
2019-01-21T04:49:21.792Z,1018.82
2019-01-21T04:50:21.784Z,1018.81
2019-01-21T04:51:21.770Z,1018.83
2019-01-21T04:52:21.760Z,1018.87
2019-01-21T04:53:21.754Z,1018.83
2019-01-21T04:54:21.744Z,1018.80
2019-01-21T04:55:21.729Z,1018.80
2019-01-21T04:56:21.717Z,1018.83
2019-01-21T04:57:21.711Z,1018.78
2019-01-21T04:58:21.698Z,1018.84
2019-01-21T04:59:21.690Z,1018.80
2019-01-21T05:00:21.687Z,1018.87
2019-01-21T05:01:21.666Z,1018.87
2019-01-21T05:02:21.654Z,1018.81
2019-01-21T05:03:21.642Z,1018.83
2019-01-21T05:04:21.636Z,1018.84
2019-01-21T05:05:21.627Z,1018.89
2019-01-21T05:06:21.638Z,1018.88
2019-01-21T05:07:21.605Z,1018.83
2019-01-21T05:08:21.601Z,1018.83
2019-01-21T05:09:21.584Z,1018.81
2019-01-21T05:10:21.578Z,1018.80
2019-01-21T05:11:21.563Z,1018.83
2019-01-21T05:12:21.570Z,1018.80
2019-01-21T05:13:21.545Z,1018.80
2019-01-21T05:14:21.529Z,1018.79
2019-01-21T05:15:21.517Z,1018.79
2019-01-21T05:16:21.516Z,1018.79
2019-01-21T05:17:21.526Z,1018.80
2019-01-21T05:18:21.504Z,1018.78
2019-01-21T05:19:21.480Z,1018.78
2019-01-21T05:20:21.467Z,1018.73
2019-01-21T05:21:21.458Z,1018.73
2019-01-21T05:22:21.466Z,1018.74
2019-01-21T05:23:21.445Z,1018.76
2019-01-21T05:24:21.439Z,1018.72
2019-01-21T05:25:21.422Z,1018.78
2019-01-21T05:26:21.405Z,1018.75
2019-01-21T05:27:21.403Z,1018.79
2019-01-21T05:28:21.393Z,1018.79
2019-01-21T05:29:21.381Z,1018.80
2019-01-21T05:30:21.377Z,1018.80
2019-01-21T05:31:21.357Z,1018.78
2019-01-21T05:32:21.340Z,1018.76
2019-01-21T05:33:21.345Z,1018.77
2019-01-21T05:34:21.317Z,1018.76
2019-01-21T05:35:21.314Z,1018.80
2019-01-21T05:36:21.303Z,1018.77
2019-01-21T05:37:21.287Z,1018.78
2019-01-21T05:38:21.276Z,1018.77
2019-01-21T05:39:21.280Z,1018.77
2019-01-21T05:40:21.252Z,1018.80
2019-01-21T05:41:21.251Z,1018.76
2019-01-21T05:42:21.235Z,1018.77
2019-01-21T05:43:21.225Z,1018.84
2019-01-21T05:44:21.224Z,1018.78
2019-01-21T05:45:21.205Z,1018.78
2019-01-21T05:46:21.197Z,1018.76
2019-01-21T05:47:21.187Z,1018.78
2019-01-21T05:48:21.185Z,1018.77
2019-01-21T05:49:21.160Z,1018.76
2019-01-21T05:50:21.148Z,1018.75
2019-01-21T05:51:21.132Z,1018.73
2019-01-21T05:52:21.126Z,1018.78
2019-01-21T05:53:21.115Z,1018.76
2019-01-21T05:54:21.101Z,1018.74
2019-01-21T05:55:21.086Z,1018.74
2019-01-21T05:56:21.077Z,1018.79
2019-01-21T05:57:21.066Z,1018.77
2019-01-21T05:58:21.057Z,1018.81
2019-01-21T05:59:21.048Z,1018.74
2019-01-21T06:00:21.034Z,1018.83
2019-01-21T06:01:21.030Z,1018.83
2019-01-21T06:02:21.023Z,1018.82
2019-01-21T06:03:21.010Z,1018.85
2019-01-21T06:04:20.995Z,1018.79
2019-01-21T06:05:20.983Z,1018.80
2019-01-21T06:06:20.969Z,1018.78
2019-01-21T06:07:20.960Z,1018.80
2019-01-21T06:08:20.950Z,1018.80
2019-01-21T06:09:20.941Z,1018.86
2019-01-21T06:10:20.928Z,1018.83
2019-01-21T06:11:20.919Z,1018.85
2019-01-21T06:12:20.905Z,1018.84
2019-01-21T06:13:20.894Z,1018.87
2019-01-21T06:14:20.883Z,1018.91
2019-01-21T06:15:20.873Z,1018.90
2019-01-21T06:16:20.865Z,1018.88
2019-01-21T06:17:20.851Z,1018.89
2019-01-21T06:18:20.841Z,1018.87
2019-01-21T06:19:20.833Z,1018.89
2019-01-21T06:20:20.822Z,1018.84
2019-01-21T06:21:20.812Z,1018.85
2019-01-21T06:22:20.799Z,1018.85
2019-01-21T06:23:20.798Z,1018.89
2019-01-21T06:24:20.777Z,1018.81
2019-01-21T06:25:20.767Z,1018.86
2019-01-21T06:26:20.754Z,1018.85
2019-01-21T06:27:20.743Z,1018.89
2019-01-21T06:28:20.733Z,1018.91
2019-01-21T06:29:20.722Z,1018.97
2019-01-21T06:30:20.717Z,1018.97
2019-01-21T06:31:20.700Z,1018.97
2019-01-21T06:32:20.690Z,1018.93
2019-01-21T06:33:20.683Z,1018.98
2019-01-21T06:34:20.675Z,1019.00
2019-01-21T06:35:20.660Z,1018.97
2019-01-21T06:36:20.647Z,1018.98
2019-01-21T06:37:20.641Z,1018.97
2019-01-21T06:38:20.626Z,1018.95
2019-01-21T06:39:20.616Z,1018.97
2019-01-21T06:40:20.609Z,1018.98
2019-01-21T06:41:20.593Z,1019.02
2019-01-21T06:42:20.587Z,1019.08
2019-01-21T06:43:20.573Z,1019.08
2019-01-21T06:44:20.565Z,1019.10
2019-01-21T06:45:20.554Z,1019.10
2019-01-21T06:46:20.545Z,1019.06
2019-01-21T06:47:20.529Z,1019.06
2019-01-21T06:48:20.530Z,1019.07
2019-01-21T06:49:20.512Z,1019.07
2019-01-21T06:50:20.505Z,1019.09
2019-01-21T06:51:20.497Z,1019.10
2019-01-21T06:52:20.480Z,1019.10
2019-01-21T06:53:20.470Z,1019.14
2019-01-21T06:54:20.466Z,1019.13
2019-01-21T06:55:20.450Z,1019.08
2019-01-21T06:56:20.443Z,1019.12
2019-01-21T06:57:20.430Z,1019.08
2019-01-21T06:58:20.438Z,1019.13
2019-01-21T06:59:20.401Z,1019.15
2019-01-21T07:00:20.397Z,1019.11
2019-01-21T07:01:20.391Z,1019.12
2019-01-21T07:02:20.377Z,1019.07
2019-01-21T07:03:20.366Z,1019.05
2019-01-21T07:04:20.356Z,1019.05
2019-01-21T07:05:20.346Z,1019.06
2019-01-21T07:06:20.328Z,1019.04
2019-01-21T07:07:20.319Z,1019.03
2019-01-21T07:08:20.313Z,1019.06
2019-01-21T07:09:20.307Z,1019.05
2019-01-21T07:10:20.293Z,1019.11
2019-01-21T07:11:20.280Z,1019.07
2019-01-21T07:12:20.268Z,1019.09
2019-01-21T07:13:20.254Z,1019.10
2019-01-21T07:14:20.243Z,1019.08
2019-01-21T07:15:20.233Z,1019.10
2019-01-21T07:16:20.221Z,1019.07
2019-01-21T07:17:20.215Z,1019.08
2019-01-21T07:18:20.205Z,1019.15
2019-01-21T07:19:20.193Z,1019.10
2019-01-21T07:20:20.179Z,1019.16
2019-01-21T07:21:20.175Z,1019.17
2019-01-21T07:22:20.157Z,1019.18
2019-01-21T07:23:20.145Z,1019.11
2019-01-21T07:24:20.134Z,1019.13
2019-01-21T07:25:20.127Z,1019.13
2019-01-21T07:26:20.115Z,1019.10
2019-01-21T07:27:20.104Z,1019.08
2019-01-21T07:28:20.091Z,1019.07
2019-01-21T07:29:20.084Z,1019.06
2019-01-21T07:30:20.070Z,1019.08
2019-01-21T07:31:20.060Z,1019.07
2019-01-21T07:32:20.049Z,1019.06
2019-01-21T07:33:20.044Z,1019.06
2019-01-21T07:34:20.027Z,1019.06
2019-01-21T07:35:20.017Z,1019.07
2019-01-21T07:36:20.010Z,1019.08
2019-01-21T07:37:19.995Z,1019.09
2019-01-21T07:38:19.987Z,1019.09
2019-01-21T07:39:19.980Z,1019.17
2019-01-21T07:40:19.963Z,1019.15
2019-01-21T07:41:19.965Z,1019.17
2019-01-21T07:42:19.941Z,1019.14
2019-01-21T07:43:19.933Z,1019.19
2019-01-21T07:44:19.923Z,1019.18
2019-01-21T07:45:19.917Z,1019.18
2019-01-21T07:46:19.900Z,1019.20
2019-01-21T07:47:19.889Z,1019.20
2019-01-21T07:48:19.883Z,1019.18
2019-01-21T07:49:19.873Z,1019.21
2019-01-21T07:50:19.864Z,1019.23
2019-01-21T07:51:19.855Z,1019.23
2019-01-21T07:52:19.834Z,1019.21
2019-01-21T07:53:19.824Z,1019.30
2019-01-21T07:54:19.814Z,1019.20
2019-01-21T07:55:19.838Z,1019.22
2019-01-21T07:56:19.797Z,1019.21
2019-01-21T07:57:19.784Z,1019.17
2019-01-21T07:58:19.777Z,1019.21
2019-01-21T07:59:19.759Z,1019.17
2019-01-21T08:00:19.748Z,1019.15
2019-01-21T08:01:19.739Z,1019.15
2019-01-21T08:02:19.728Z,1019.17
2019-01-21T08:03:19.724Z,1019.17
2019-01-21T08:04:19.708Z,1019.20
2019-01-21T08:05:19.698Z,1019.19
2019-01-21T08:06:19.687Z,1019.18
2019-01-21T08:07:19.677Z,1019.21
2019-01-21T08:08:19.664Z,1019.19
2019-01-21T08:09:19.652Z,1019.25
2019-01-21T08:10:19.642Z,1019.23
2019-01-21T08:11:19.632Z,1019.26
2019-01-21T08:12:19.622Z,1019.22
2019-01-21T08:13:19.611Z,1019.28
2019-01-21T08:14:19.601Z,1019.27
2019-01-21T08:15:19.589Z,1019.22
2019-01-21T08:16:19.578Z,1019.24
2019-01-21T08:17:19.569Z,1019.25
2019-01-21T08:18:19.562Z,1019.27
2019-01-21T08:19:24.351Z,1019.25
2019-01-21T08:20:20.535Z,1019.30
2019-01-21T08:21:19.525Z,1019.27
2019-01-21T08:22:19.514Z,1019.29
2019-01-21T08:23:19.515Z,1019.29
2019-01-21T08:24:19.497Z,1019.27
2019-01-21T08:25:19.485Z,1019.25
2019-01-21T08:26:19.474Z,1019.24
2019-01-21T08:27:19.473Z,1019.25
2019-01-21T08:28:19.450Z,1019.19
2019-01-21T08:29:19.440Z,1019.19
2019-01-21T08:30:19.432Z,1019.21
2019-01-21T08:31:19.422Z,1019.19
2019-01-21T08:32:19.408Z,1019.22
2019-01-21T08:33:19.404Z,1019.27
2019-01-21T08:34:19.385Z,1019.24
2019-01-21T08:35:19.375Z,1019.27
2019-01-21T08:36:19.367Z,1019.28
2019-01-21T08:37:19.357Z,1019.25
2019-01-21T08:38:19.344Z,1019.29
2019-01-21T08:39:19.333Z,1019.30
2019-01-21T08:40:19.322Z,1019.26
2019-01-21T08:41:19.320Z,1019.23
2019-01-21T08:42:19.306Z,1019.20
2019-01-21T08:43:19.292Z,1019.17
2019-01-21T08:44:19.284Z,1019.20
2019-01-21T08:45:19.269Z,1019.20
2019-01-21T08:46:21.452Z,1019.22
2019-01-21T08:47:19.260Z,1019.20
2019-01-21T08:48:19.236Z,1019.18
2019-01-21T08:49:19.226Z,1019.19
2019-01-21T08:50:19.214Z,1019.21
2019-01-21T08:51:19.204Z,1019.21
2019-01-21T08:52:19.194Z,1019.20
2019-01-21T08:53:19.182Z,1019.16
2019-01-21T08:54:19.180Z,1019.18
2019-01-21T08:55:19.168Z,1019.21
2019-01-21T08:56:19.151Z,1019.25
2019-01-21T08:57:19.140Z,1019.24
2019-01-21T08:58:19.129Z,1019.24
2019-01-21T08:59:19.126Z,1019.25
2019-01-21T09:00:19.122Z,1019.25
2019-01-21T09:01:19.098Z,1019.25
2019-01-21T09:02:19.086Z,1019.18
2019-01-21T09:03:19.337Z,1019.23
2019-01-21T09:04:19.065Z,1019.23
2019-01-21T09:05:19.054Z,1019.23
2019-01-21T09:06:19.044Z,1019.22
2019-01-21T09:07:19.033Z,1019.24
2019-01-21T09:08:19.022Z,1019.20
2019-01-21T09:09:19.020Z,1019.24
2019-01-21T09:10:19.002Z,1019.20
2019-01-21T09:11:19.003Z,1019.18
2019-01-21T09:12:18.980Z,1019.21
2019-01-21T09:13:18.968Z,1019.23
2019-01-21T09:14:18.963Z,1019.24
2019-01-21T09:15:18.948Z,1019.27
2019-01-21T09:16:18.935Z,1019.26
2019-01-21T09:17:19.140Z,1019.28
2019-01-21T09:18:18.916Z,1019.27
2019-01-21T09:19:18.907Z,1019.28
2019-01-21T09:20:18.894Z,1019.33
2019-01-21T09:21:18.891Z,1019.25
2019-01-21T09:22:18.874Z,1019.30
2019-01-21T09:23:18.861Z,1019.30
2019-01-21T09:24:18.858Z,1019.27
2019-01-21T09:25:18.861Z,1019.27
2019-01-21T09:26:18.871Z,1019.27
2019-01-21T09:27:18.857Z,1019.26
2019-01-21T09:28:18.810Z,1019.30
2019-01-21T09:29:18.802Z,1019.27
2019-01-21T09:30:18.788Z,1019.27
2019-01-21T09:31:18.779Z,1019.24
2019-01-21T09:32:18.772Z,1019.28
2019-01-21T09:33:18.774Z,1019.25
2019-01-21T09:34:18.760Z,1019.31
2019-01-21T09:35:18.739Z,1019.30
2019-01-21T09:36:18.727Z,1019.25
2019-01-21T09:37:18.717Z,1019.22
2019-01-21T09:38:18.715Z,1019.26
2019-01-21T09:39:18.691Z,1019.21
2019-01-21T09:40:18.691Z,1019.29
2019-01-21T09:41:18.669Z,1019.26
2019-01-21T09:42:18.665Z,1019.29
2019-01-21T09:43:18.658Z,1019.25
2019-01-21T09:44:18.640Z,1019.28
2019-01-21T09:45:18.627Z,1019.26
2019-01-21T09:46:18.617Z,1019.25
2019-01-21T09:47:18.634Z,1019.24
2019-01-21T09:48:18.595Z,1019.24
2019-01-21T09:49:18.630Z,1019.25
2019-01-21T09:50:18.587Z,1019.26
2019-01-21T09:51:18.564Z,1019.26
2019-01-21T09:52:18.556Z,1019.25
2019-01-21T09:53:18.546Z,1019.30
2019-01-21T09:54:18.637Z,1019.28
2019-01-21T09:55:18.750Z,1019.29
2019-01-21T09:56:18.521Z,1019.32
2019-01-21T09:57:18.504Z,1019.28
2019-01-21T09:58:18.492Z,1019.23
2019-01-21T09:59:18.477Z,1019.22
2019-01-21T10:00:18.474Z,1019.19
2019-01-21T10:01:18.464Z,1019.21
2019-01-21T10:02:18.469Z,1019.20
2019-01-21T10:03:18.434Z,1019.16
2019-01-21T10:04:18.425Z,1019.18
2019-01-21T10:05:18.414Z,1019.24
2019-01-21T10:06:18.513Z,1019.28
2019-01-21T10:07:18.413Z,1019.26
2019-01-21T10:08:18.393Z,1019.20
2019-01-21T10:09:18.379Z,1019.19
2019-01-21T10:10:18.446Z,1019.26
2019-01-21T10:11:18.350Z,1019.19
2019-01-21T10:12:18.343Z,1019.14
2019-01-21T10:13:18.329Z,1019.21
2019-01-21T10:14:18.319Z,1019.19
2019-01-21T10:15:18.314Z,1019.17
2019-01-21T10:16:18.295Z,1019.16
2019-01-21T10:17:18.294Z,1019.12
2019-01-21T10:18:18.284Z,1019.09
2019-01-21T10:19:18.266Z,1019.09
2019-01-21T10:20:18.254Z,1019.07
2019-01-21T10:21:18.242Z,1019.05
2019-01-21T10:22:18.240Z,1019.05
2019-01-21T10:23:18.223Z,1019.05
2019-01-21T10:24:18.219Z,1018.98
2019-01-21T10:25:18.205Z,1019.01
2019-01-21T10:26:18.196Z,1018.99
2019-01-21T10:27:18.185Z,1018.96
2019-01-21T10:28:18.581Z,1018.97
2019-01-21T10:29:18.170Z,1018.89
2019-01-21T10:30:18.153Z,1018.95
2019-01-21T10:31:18.143Z,1018.91
2019-01-21T10:32:18.128Z,1018.94
2019-01-21T10:33:18.113Z,1018.92
2019-01-21T10:34:18.106Z,1018.90
2019-01-21T10:35:18.096Z,1018.88
2019-01-21T10:36:18.093Z,1018.85
2019-01-21T10:37:18.075Z,1018.83
2019-01-21T10:38:18.061Z,1018.83
2019-01-21T10:39:18.051Z,1018.83
2019-01-21T10:40:18.039Z,1018.78
2019-01-21T10:41:18.194Z,1018.77
2019-01-21T10:42:18.605Z,1018.72
2019-01-21T10:43:18.013Z,1018.73
2019-01-21T10:44:17.998Z,1018.75
2019-01-21T10:45:17.986Z,1018.77
2019-01-21T10:46:18.553Z,1018.77
2019-01-21T10:47:17.963Z,1018.79
2019-01-21T10:48:17.952Z,1018.76
2019-01-21T10:49:17.949Z,1018.78
2019-01-21T10:50:18.340Z,1018.79
2019-01-21T10:51:17.920Z,1018.75
2019-01-21T10:52:17.910Z,1018.72
2019-01-21T10:53:17.899Z,1018.70
2019-01-21T10:54:17.892Z,1018.68
2019-01-21T10:55:17.878Z,1018.67
2019-01-21T10:56:17.866Z,1018.68
2019-01-21T10:57:17.856Z,1018.67
2019-01-21T10:58:17.850Z,1018.59
2019-01-21T10:59:17.850Z,1018.63
2019-01-21T11:00:17.824Z,1018.58
2019-01-21T11:01:17.819Z,1018.56
2019-01-21T11:02:17.810Z,1018.56
2019-01-21T11:03:17.794Z,1018.53
2019-01-21T11:04:17.783Z,1018.51
2019-01-21T11:05:17.775Z,1018.49
2019-01-21T11:06:17.762Z,1018.50
2019-01-21T11:07:17.750Z,1018.42
2019-01-21T11:08:17.753Z,1018.45
2019-01-21T11:09:17.729Z,1018.44
2019-01-21T11:10:17.719Z,1018.37
2019-01-21T11:11:17.718Z,1018.39
2019-01-21T11:12:17.704Z,1018.39
2019-01-21T11:13:17.686Z,1018.34
2019-01-21T11:14:17.714Z,1018.35
2019-01-21T11:15:17.668Z,1018.34
2019-01-21T11:16:17.657Z,1018.31
2019-01-21T11:17:17.644Z,1018.31
2019-01-21T11:18:17.643Z,1018.28
2019-01-21T11:19:17.624Z,1018.22
2019-01-21T11:20:17.611Z,1018.21
2019-01-21T11:21:17.601Z,1018.21
2019-01-21T11:22:17.597Z,1018.26
2019-01-21T11:23:17.584Z,1018.25
2019-01-21T11:24:17.577Z,1018.13
2019-01-21T11:25:17.557Z,1018.13
2019-01-21T11:26:17.556Z,1018.15
2019-01-21T11:27:17.541Z,1018.16
2019-01-21T11:28:17.528Z,1018.12
2019-01-21T11:29:17.919Z,1018.12
2019-01-21T11:30:17.509Z,1018.08
2019-01-21T11:31:17.493Z,1018.08
2019-01-21T11:32:17.485Z,1018.02
2019-01-21T11:33:17.471Z,1017.98
2019-01-21T11:34:17.463Z,1017.96
2019-01-21T11:35:17.450Z,1017.95
2019-01-21T11:36:17.440Z,1017.93
2019-01-21T11:37:17.428Z,1017.87
2019-01-21T11:38:17.419Z,1017.82
2019-01-21T11:39:17.407Z,1017.83
2019-01-21T11:40:17.400Z,1017.82
2019-01-21T11:41:17.391Z,1017.78
2019-01-21T11:42:17.376Z,1017.78
2019-01-21T11:43:17.364Z,1017.80
2019-01-21T11:44:17.356Z,1017.81
2019-01-21T11:45:18.750Z,1017.86
2019-01-21T11:46:17.340Z,1017.85
2019-01-21T11:47:17.322Z,1017.80
2019-01-21T11:48:17.314Z,1017.86
2019-01-21T11:49:17.302Z,1017.88
2019-01-21T11:50:17.292Z,1017.87
2019-01-21T11:51:17.279Z,1017.88
2019-01-21T11:52:17.749Z,1017.87
2019-01-21T11:53:17.258Z,1017.89
2019-01-21T11:54:17.249Z,1017.86
2019-01-21T11:55:17.237Z,1017.92
2019-01-21T11:56:17.250Z,1017.89
2019-01-21T11:57:17.215Z,1017.89
2019-01-21T11:58:17.223Z,1017.90
2019-01-21T11:59:17.194Z,1017.90
2019-01-21T12:00:17.188Z,1017.97
2019-01-21T12:01:17.174Z,1017.95
2019-01-21T12:02:17.166Z,1017.98
2019-01-21T12:03:23.319Z,1017.94
2019-01-21T12:04:18.146Z,1017.99
2019-01-21T12:05:17.131Z,1018.02